Herzlich willkommen!

Am freundlichen Bodensee-Flugplatz zwischen Schwarzwald, Rhein und Alpen.

Aktuelles

27.03.2019
NOTAM !!!!!
(E0671/19 NOTAMN Q) LSAS/QFAAP/IV/NBO/A /000/999/4741N00908E005 A) EDTZ B) 1903271000 C) 1904282359 E) AD PPR DUE TO SOFT RWY SURFACE.) Auf Grund der Dürre im letzten Jahr waren umfangreiche Sanierungsmaßnahmen an der Piste durchzuführen. Die Grasnarbe ist noch nicht wieder hergestellt, darum sind wir gezwungen den Flugbetrieb massiv einzuschränken. Wir bitten um Ihr Verständnis.
— Flugleitung EDTZ

Live am Platz

Die Bilder unserer Webcams werden alle 5 Minuten aktualisiert.

Sonnenaufgang:

04:15 UTC / 06:15 Lokal

Sonnenuntergang:

18:27 UTC / 20:27 Lokal

METAR (24.04.2019 14:50 UTC):

EDNY 241450Z 19015G25KT CAVOK 23/02 Q1002
VFR

TAF (24.04.2019 11:00 UTC):

TAF EDNY 241100Z 2412/2512 18012KT CAVOK BECMG 2417/2419 24006KT BECMG 2422/2424 05004KT BECMG 2509/2511 18009KT

Alle Angaben unverbindlich und ohne Gewähr. Zeiten genähert.

Für den Verkehrslandeplatz Konstanz werden keine offiziellen Wetterinformationen ausgegeben. Daher werden zur Orientierung Daten des nahegelegenen Flughafens Friedrichshafen dargestellt.

Flugwetterdaten zur Verfügung gestellt von wippich.aero.